sensor_id;sensor_type;location;lat;lon;timestamp;P1;durP1;ratioP1;P2;durP2;ratioP2
46597;SDS011;32318;48.858;8.252;2022-08-30T00:04:28;7.80;;;2.88;;
46597;SDS011;32318;48.858;8.252;2022-08-30T00:12:29;6.15;;;2.60;;
46597;SDS011;32318;48.858;8.252;2022-08-30T00:20:31;7.43;;;2.75;;
46597;SDS011;32318;48.858;8.252;2022-08-30T00:28:34;10.55;;;2.70;;
46597;SDS011;32318;48.858;8.252;2022-08-30T00:36:34;7.23;;;3.10;;
46597;SDS011;32318;48.858;8.252;2022-08-30T00:44:35;15.13;;;2.75;;
46597;SDS011;32318;48.858;8.252;2022-08-30T00:52:35;11.95;;;2.90;;
46597;SDS011;32318;48.858;8.252;2022-08-30T01:00:40;6.75;;;2.78;;
46597;SDS011;32318;48.858;8.252;2022-08-30T01:08:40;16.75;;;3.58;;
46597;SDS011;32318;48.858;8.252;2022-08-30T01:16:42;7.07;;;3.50;;
46597;SDS011;32318;48.858;8.252;2022-08-30T01:24:45;19.15;;;3.72;;
46597;SDS011;32318;48.858;8.252;2022-08-30T01:32:46;9.45;;;3.05;;
46597;SDS011;32318;48.858;8.252;2022-08-30T01:40:47;4.50;;;2.33;;
46597;SDS011;32318;48.858;8.252;2022-08-30T01:48:48;9.48;;;2.80;;
46597;SDS011;32318;48.858;8.252;2022-08-30T01:56:50;8.60;;;2.50;;
46597;SDS011;32318;48.858;8.252;2022-08-30T02:04:50;11.23;;;2.72;;
46597;SDS011;32318;48.858;8.252;2022-08-30T02:12:51;8.45;;;2.28;;
46597;SDS011;32318;48.858;8.252;2022-08-30T02:20:52;9.20;;;2.50;;
46597;SDS011;32318;48.858;8.252;2022-08-30T02:28:52;13.07;;;2.60;;
46597;SDS011;32318;48.858;8.252;2022-08-30T02:36:53;7.97;;;2.78;;
46597;SDS011;32318;48.858;8.252;2022-08-30T02:44:53;9.32;;;2.90;;
46597;SDS011;32318;48.858;8.252;2022-08-30T02:52:53;6.70;;;2.67;;
46597;SDS011;32318;48.858;8.252;2022-08-30T03:00:54;7.90;;;2.90;;
46597;SDS011;32318;48.858;8.252;2022-08-30T03:08:54;8.48;;;3.10;;
46597;SDS011;32318;48.858;8.252;2022-08-30T03:16:54;8.20;;;4.20;;
46597;SDS011;32318;48.858;8.252;2022-08-30T03:24:55;8.05;;;2.80;;
46597;SDS011;32318;48.858;8.252;2022-08-30T03:32:59;11.65;;;2.92;;
46597;SDS011;32318;48.858;8.252;2022-08-30T03:41:00;8.10;;;3.25;;
46597;SDS011;32318;48.858;8.252;2022-08-30T03:49:00;7.60;;;3.33;;
46597;SDS011;32318;48.858;8.252;2022-08-30T03:57:01;12.95;;;4.00;;
46597;SDS011;32318;48.858;8.252;2022-08-30T04:05:01;9.93;;;3.22;;
46597;SDS011;32318;48.858;8.252;2022-08-30T04:13:01;10.02;;;3.17;;
46597;SDS011;32318;48.858;8.252;2022-08-30T04:21:02;6.70;;;3.07;;
46597;SDS011;32318;48.858;8.252;2022-08-30T04:29:03;11.18;;;2.95;;
46597;SDS011;32318;48.858;8.252;2022-08-30T04:37:03;11.37;;;3.53;;
46597;SDS011;32318;48.858;8.252;2022-08-30T04:45:05;17.13;;;3.25;;
46597;SDS011;32318;48.858;8.252;2022-08-30T04:53:08;16.20;;;4.05;;
46597;SDS011;32318;48.858;8.252;2022-08-30T05:01:14;13.52;;;4.03;;
46597;SDS011;32318;48.858;8.252;2022-08-30T05:09:20;8.27;;;3.00;;
46597;SDS011;32318;48.858;8.252;2022-08-30T05:17:20;9.57;;;3.15;;
46597;SDS011;32318;48.858;8.252;2022-08-30T05:25:22;9.40;;;3.08;;
46597;SDS011;32318;48.858;8.252;2022-08-30T05:33:24;9.85;;;3.88;;
46597;SDS011;32318;48.858;8.252;2022-08-30T05:41:24;10.15;;;3.15;;
46597;SDS011;32318;48.858;8.252;2022-08-30T05:49:25;8.05;;;3.33;;
46597;SDS011;32318;48.858;8.252;2022-08-30T05:57:25;12.43;;;3.40;;
46597;SDS011;32318;48.858;8.252;2022-08-30T06:05:26;11.57;;;3.42;;
46597;SDS011;32318;48.858;8.252;2022-08-30T06:13:26;8.85;;;3.33;;
46597;SDS011;32318;48.858;8.252;2022-08-30T06:21:28;13.65;;;3.63;;
46597;SDS011;32318;48.858;8.252;2022-08-30T06:29:30;11.57;;;3.78;;
46597;SDS011;32318;48.858;8.252;2022-08-30T06:37:31;16.73;;;3.78;;
46597;SDS011;32318;48.858;8.252;2022-08-30T06:45:32;8.13;;;3.95;;
46597;SDS011;32318;48.858;8.252;2022-08-30T06:53:33;12.38;;;4.30;;
46597;SDS011;32318;48.858;8.252;2022-08-30T07:01:33;10.10;;;3.30;;
46597;SDS011;32318;48.858;8.252;2022-08-30T07:09:34;12.73;;;3.63;;
46597;SDS011;32318;48.858;8.252;2022-08-30T07:17:34;27.10;;;4.25;;
46597;SDS011;32318;48.858;8.252;2022-08-30T07:25:53;16.77;;;3.58;;
46597;SDS011;32318;48.858;8.252;2022-08-30T07:33:53;8.73;;;3.58;;
46597;SDS011;32318;48.858;8.252;2022-08-30T07:41:54;17.55;;;3.50;;
46597;SDS011;32318;48.858;8.252;2022-08-30T07:49:54;11.52;;;3.65;;
46597;SDS011;32318;48.858;8.252;2022-08-30T07:57:55;7.63;;;3.47;;
46597;SDS011;32318;48.858;8.252;2022-08-30T08:05:55;11.30;;;3.22;;
46597;SDS011;32318;48.858;8.252;2022-08-30T08:13:56;8.82;;;3.70;;
46597;SDS011;32318;48.858;8.252;2022-08-30T08:21:56;12.60;;;3.80;;
46597;SDS011;32318;48.858;8.252;2022-08-30T08:29:59;9.70;;;4.03;;
46597;SDS011;32318;48.858;8.252;2022-08-30T08:37:59;13.35;;;4.47;;
46597;SDS011;32318;48.858;8.252;2022-08-30T08:46:03;13.07;;;3.78;;
46597;SDS011;32318;48.858;8.252;2022-08-30T08:54:11;12.23;;;3.58;;
46597;SDS011;32318;48.858;8.252;2022-08-30T09:02:25;9.20;;;3.70;;
46597;SDS011;32318;48.858;8.252;2022-08-30T09:10:28;10.60;;;3.85;;
46597;SDS011;32318;48.858;8.252;2022-08-30T09:18:44;8.68;;;3.92;;
46597;SDS011;32318;48.858;8.252;2022-08-30T09:26:46;7.73;;;3.67;;
46597;SDS011;32318;48.858;8.252;2022-08-30T09:34:46;23.48;;;4.00;;
46597;SDS011;32318;48.858;8.252;2022-08-30T09:43:00;11.90;;;3.63;;
46597;SDS011;32318;48.858;8.252;2022-08-30T10:15:50;12.13;;;3.95;;
46597;SDS011;32318;48.858;8.252;2022-08-30T10:23:59;17.67;;;4.07;;
46597;SDS011;32318;48.858;8.252;2022-08-30T10:32:05;15.68;;;5.10;;
46597;SDS011;32318;48.858;8.252;2022-08-30T10:40:24;9.82;;;3.90;;
46597;SDS011;32318;48.858;8.252;2022-08-30T10:48:47;11.02;;;3.72;;
46597;SDS011;32318;48.858;8.252;2022-08-30T10:56:48;9.27;;;3.72;;
46597;SDS011;32318;48.858;8.252;2022-08-30T11:13:20;7.78;;;3.90;;
46597;SDS011;32318;48.858;8.252;2022-08-30T11:21:32;9.00;;;3.83;;
46597;SDS011;32318;48.858;8.252;2022-08-30T11:29:39;13.68;;;4.35;;
46597;SDS011;32318;48.858;8.252;2022-08-30T11:37:42;12.63;;;3.85;;
46597;SDS011;32318;48.858;8.252;2022-08-30T11:45:44;17.88;;;4.20;;
46597;SDS011;32318;48.858;8.252;2022-08-30T11:53:51;12.52;;;4.45;;
46597;SDS011;32318;48.858;8.252;2022-08-30T12:02:02;9.45;;;4.35;;
46597;SDS011;32318;48.858;8.252;2022-08-30T12:10:04;13.88;;;4.15;;
46597;SDS011;32318;48.858;8.252;2022-08-30T12:18:06;7.25;;;3.92;;
46597;SDS011;32318;48.858;8.252;2022-08-30T12:26:44;8.73;;;4.10;;
46597;SDS011;32318;48.858;8.252;2022-08-30T12:42:56;10.07;;;4.15;;
46597;SDS011;32318;48.858;8.252;2022-08-30T12:51:01;11.63;;;4.63;;
46597;SDS011;32318;48.858;8.252;2022-08-30T12:59:03;7.45;;;3.95;;
46597;SDS011;32318;48.858;8.252;2022-08-30T13:07:03;8.40;;;3.70;;
46597;SDS011;32318;48.858;8.252;2022-08-30T13:23:09;7.80;;;3.50;;
46597;SDS011;32318;48.858;8.252;2022-08-30T13:31:10;5.50;;;3.63;;
46597;SDS011;32318;48.858;8.252;2022-08-30T13:39:10;9.75;;;3.67;;
46597;SDS011;32318;48.858;8.252;2022-08-30T13:47:11;7.07;;;3.58;;
46597;SDS011;32318;48.858;8.252;2022-08-30T13:55:12;7.60;;;3.80;;
46597;SDS011;32318;48.858;8.252;2022-08-30T14:03:12;5.53;;;3.28;;
46597;SDS011;32318;48.858;8.252;2022-08-30T14:11:15;7.55;;;3.83;;
46597;SDS011;32318;48.858;8.252;2022-08-30T14:19:17;11.55;;;3.60;;
46597;SDS011;32318;48.858;8.252;2022-08-30T14:27:17;9.30;;;3.63;;
46597;SDS011;32318;48.858;8.252;2022-08-30T14:35:18;15.77;;;3.70;;
46597;SDS011;32318;48.858;8.252;2022-08-30T14:43:19;9.30;;;3.45;;
46597;SDS011;32318;48.858;8.252;2022-08-30T14:51:20;5.90;;;3.78;;
46597;SDS011;32318;48.858;8.252;2022-08-30T14:59:22;9.82;;;3.70;;
46597;SDS011;32318;48.858;8.252;2022-08-30T15:07:23;14.68;;;3.42;;
46597;SDS011;32318;48.858;8.252;2022-08-30T15:15:23;10.30;;;3.78;;
46597;SDS011;32318;48.858;8.252;2022-08-30T15:23:24;7.00;;;3.60;;
46597;SDS011;32318;48.858;8.252;2022-08-30T15:31:26;8.82;;;3.90;;
46597;SDS011;32318;48.858;8.252;2022-08-30T15:39:27;17.25;;;3.85;;
46597;SDS011;32318;48.858;8.252;2022-08-30T15:47:27;13.45;;;3.83;;
46597;SDS011;32318;48.858;8.252;2022-08-30T15:55:29;14.18;;;3.45;;
46597;SDS011;32318;48.858;8.252;2022-08-30T16:03:30;7.93;;;3.40;;
46597;SDS011;32318;48.858;8.252;2022-08-30T16:11:34;8.45;;;3.28;;
46597;SDS011;32318;48.858;8.252;2022-08-30T16:19:36;8.85;;;3.30;;
46597;SDS011;32318;48.858;8.252;2022-08-30T16:27:36;8.60;;;3.60;;
46597;SDS011;32318;48.858;8.252;2022-08-30T16:35:41;9.15;;;3.50;;
46597;SDS011;32318;48.858;8.252;2022-08-30T16:43:42;10.63;;;3.15;;
46597;SDS011;32318;48.858;8.252;2022-08-30T16:51:43;10.93;;;3.42;;
46597;SDS011;32318;48.858;8.252;2022-08-30T16:59:43;12.43;;;3.33;;
46597;SDS011;32318;48.858;8.252;2022-08-30T17:07:44;7.55;;;3.38;;
46597;SDS011;32318;48.858;8.252;2022-08-30T17:15:44;10.50;;;3.70;;
46597;SDS011;32318;48.858;8.252;2022-08-30T17:23:46;6.22;;;2.97;;
46597;SDS011;32318;48.858;8.252;2022-08-30T17:31:46;6.78;;;3.20;;
46597;SDS011;32318;48.858;8.252;2022-08-30T17:39:48;7.88;;;3.03;;
46597;SDS011;32318;48.858;8.252;2022-08-30T17:47:48;7.53;;;2.87;;
46597;SDS011;32318;48.858;8.252;2022-08-30T17:55:49;9.27;;;3.13;;
46597;SDS011;32318;48.858;8.252;2022-08-30T18:03:50;4.88;;;2.95;;
46597;SDS011;32318;48.858;8.252;2022-08-30T18:11:51;6.90;;;3.30;;
46597;SDS011;32318;48.858;8.252;2022-08-30T18:19:51;12.00;;;3.50;;
46597;SDS011;32318;48.858;8.252;2022-08-30T18:27:52;13.77;;;3.78;;
46597;SDS011;32318;48.858;8.252;2022-08-30T18:35:53;6.50;;;3.53;;
46597;SDS011;32318;48.858;8.252;2022-08-30T18:43:53;13.63;;;3.53;;
46597;SDS011;32318;48.858;8.252;2022-08-30T18:51:54;8.85;;;2.83;;
46597;SDS011;32318;48.858;8.252;2022-08-30T18:59:54;10.35;;;3.20;;
46597;SDS011;32318;48.858;8.252;2022-08-30T19:07:54;7.20;;;3.05;;
46597;SDS011;32318;48.858;8.252;2022-08-30T19:15:55;7.90;;;3.85;;
46597;SDS011;32318;48.858;8.252;2022-08-30T19:23:55;11.32;;;3.17;;
46597;SDS011;32318;48.858;8.252;2022-08-30T19:31:55;9.15;;;3.38;;
46597;SDS011;32318;48.858;8.252;2022-08-30T19:39:56;12.82;;;3.17;;
46597;SDS011;32318;48.858;8.252;2022-08-30T19:47:56;9.67;;;3.13;;
46597;SDS011;32318;48.858;8.252;2022-08-30T19:55:57;7.60;;;2.90;;
46597;SDS011;32318;48.858;8.252;2022-08-30T20:03:57;7.20;;;3.20;;
46597;SDS011;32318;48.858;8.252;2022-08-30T20:12:00;11.15;;;3.80;;
46597;SDS011;32318;48.858;8.252;2022-08-30T20:20:01;12.77;;;3.45;;
46597;SDS011;32318;48.858;8.252;2022-08-30T20:28:03;11.70;;;2.95;;
46597;SDS011;32318;48.858;8.252;2022-08-30T20:36:05;9.30;;;3.47;;
46597;SDS011;32318;48.858;8.252;2022-08-30T20:44:06;5.97;;;2.90;;
46597;SDS011;32318;48.858;8.252;2022-08-30T20:52:08;11.02;;;3.08;;
46597;SDS011;32318;48.858;8.252;2022-08-30T21:00:09;7.25;;;2.97;;
46597;SDS011;32318;48.858;8.252;2022-08-30T21:08:10;7.57;;;3.35;;
46597;SDS011;32318;48.858;8.252;2022-08-30T21:16:11;8.50;;;2.80;;
46597;SDS011;32318;48.858;8.252;2022-08-30T21:24:11;5.80;;;2.85;;
46597;SDS011;32318;48.858;8.252;2022-08-30T21:32:12;8.48;;;3.10;;
46597;SDS011;32318;48.858;8.252;2022-08-30T21:40:32;11.57;;;4.00;;
46597;SDS011;32318;48.858;8.252;2022-08-30T21:48:33;6.53;;;3.22;;
46597;SDS011;32318;48.858;8.252;2022-08-30T21:56:35;8.40;;;3.60;;
46597;SDS011;32318;48.858;8.252;2022-08-30T22:04:38;7.65;;;3.30;;
46597;SDS011;32318;48.858;8.252;2022-08-30T22:12:39;7.28;;;3.33;;
46597;SDS011;32318;48.858;8.252;2022-08-30T22:20:40;7.88;;;3.47;;
46597;SDS011;32318;48.858;8.252;2022-08-30T22:28:40;9.65;;;4.78;;
46597;SDS011;32318;48.858;8.252;2022-08-30T22:36:40;8.10;;;4.13;;
46597;SDS011;32318;48.858;8.252;2022-08-30T22:44:41;12.02;;;5.18;;
46597;SDS011;32318;48.858;8.252;2022-08-30T22:52:41;11.60;;;4.70;;
46597;SDS011;32318;48.858;8.252;2022-08-30T23:00:41;9.00;;;4.53;;
46597;SDS011;32318;48.858;8.252;2022-08-30T23:08:42;11.63;;;5.05;;
46597;SDS011;32318;48.858;8.252;2022-08-30T23:16:42;17.88;;;5.35;;
46597;SDS011;32318;48.858;8.252;2022-08-30T23:24:43;14.30;;;5.43;;
46597;SDS011;32318;48.858;8.252;2022-08-30T23:33:02;10.50;;;6.00;;
46597;SDS011;32318;48.858;8.252;2022-08-30T23:41:20;15.80;;;5.32;;
46597;SDS011;32318;48.858;8.252;2022-08-30T23:49:39;10.80;;;4.88;;
46597;SDS011;32318;48.858;8.252;2022-08-30T23:57:58;8.88;;;4.93;;
